Time;durP1;ratioP1;P1;durP2;ratioP2;P2;SDS_P1;SDS_P2;PMS_P1;PMS_P2;Temp;Humidity;BMP_temperature;BMP_pressure;BME280_temperature;BME280_humidity;BME280_pressure;Samples;Min_cycle;Max_cycle;Signal;HPM_P1;HPM_P2
2023/03/10 00:01:22;;;;;;;11.73;4.40;;;;;;;-2.00;59.98;98201.56;5041473;28;20262;-51
2023/03/10 00:03:48;;;;;;;9.10;3.95;;;;;;;-2.01;59.27;98211.22;5052397;28;20112;-51
2023/03/10 00:06:17;;;;;;;6.78;4.25;;;;;;;-2.01;59.49;98200.72;5035366;28;20068;-50
2023/03/10 00:08:43;;;;;;;8.32;4.20;;;;;;;-2.05;58.73;98205.31;5035505;28;20079;-48
2023/03/10 00:11:09;;;;;;;7.07;4.03;;;;;;;-2.05;58.67;98202.69;5035389;28;20140;-49
2023/03/10 00:13:35;;;;;;;6.60;3.58;;;;;;;-2.10;57.94;98206.47;5034595;28;20436;-54
2023/03/10 00:16:00;;;;;;;5.07;3.38;;;;;;;-2.08;58.07;98202.00;5035938;28;20418;-51
2023/03/10 00:18:26;;;;;;;5.10;3.53;;;;;;;-2.30;58.40;98169.09;5035141;28;20440;-49
2023/03/10 00:20:53;;;;;;;5.05;3.63;;;;;;;-2.06;57.86;98205.38;5035443;28;20110;-49
2023/03/10 00:23:19;;;;;;;6.85;3.83;;;;;;;-2.05;57.87;98214.94;5035287;28;20072;-47
2023/03/10 00:25:53;;;;;;;7.43;3.80;;;;;;;-2.55;57.54;98130.25;5035153;28;20025;-49
2023/03/10 00:28:18;;;;;;;5.10;3.38;;;;;;;-2.06;57.54;98221.13;5035331;28;20041;-49
2023/03/10 00:30:44;;;;;;;5.40;3.30;;;;;;;-2.10;57.39;98212.56;5052663;28;20033;-48
2023/03/10 00:33:09;;;;;;;6.78;3.85;;;;;;;-2.09;56.96;98226.53;5054990;28;20065;-50
2023/03/10 00:35:35;;;;;;;4.70;3.10;;;;;;;-2.08;57.15;98223.81;5054942;28;20120;-50
2023/03/10 00:38:01;;;;;;;5.30;3.50;;;;;;;-2.07;57.09;98222.03;5055757;28;20041;-49
2023/03/10 00:40:27;;;;;;;4.72;3.42;;;;;;;-2.02;56.75;98235.75;5054597;28;20048;-53
2023/03/10 00:42:52;;;;;;;4.10;3.13;;;;;;;-2.04;56.53;98233.22;5054680;28;20056;-48
2023/03/10 00:45:18;;;;;;;4.45;3.45;;;;;;;-2.04;56.31;98225.34;5054504;28;20068;-52
2023/03/10 00:47:43;;;;;;;5.18;3.60;;;;;;;-2.01;56.73;98229.56;5054981;28;20414;-50
2023/03/10 00:50:10;;;;;;;5.35;3.28;;;;;;;-2.03;56.25;98231.44;5054459;28;20040;-49
2023/03/10 00:52:35;;;;;;;7.25;3.67;;;;;;;-2.08;56.16;98229.06;5054485;28;20459;-57
2023/03/10 00:55:00;;;;;;;4.80;3.13;;;;;;;-2.09;56.03;98227.34;5042791;28;20128;-48
2023/03/10 00:57:26;;;;;;;6.72;3.38;;;;;;;-2.15;56.29;98217.22;5034764;28;20455;-52
2023/03/10 00:59:52;;;;;;;4.90;3.45;;;;;;;-2.08;55.73;98229.06;5034484;28;20034;-50
2023/03/10 01:02:19;;;;;;;7.85;3.47;;;;;;;-2.07;55.93;98227.28;5049622;28;20364;-50
2023/03/10 01:04:45;;;;;;;5.95;3.30;;;;;;;-2.31;55.91;98199.69;5054767;28;20404;-51
2023/03/10 01:07:10;;;;;;;8.25;2.85;;;;;;;-2.10;55.57;98227.47;5054697;28;20029;-47
2023/03/10 01:09:36;;;;;;;5.32;2.88;;;;;;;-2.13;55.29;98238.94;5053300;28;20396;-65
2023/03/10 01:12:01;;;;;;;6.13;3.45;;;;;;;-2.14;55.40;98226.78;5054646;28;20040;-47
2023/03/10 01:14:27;;;;;;;4.82;2.67;;;;;;;-2.12;55.77;98237.19;5052745;28;20036;-48
2023/03/10 01:16:52;;;;;;;7.85;3.22;;;;;;;-2.14;55.96;98232.00;5039988;28;20025;-49
2023/03/10 01:19:18;;;;;;;5.68;3.25;;;;;;;-2.38;55.51;98193.09;5040321;28;20036;-48
2023/03/10 01:21:43;;;;;;;7.22;3.00;;;;;;;-2.19;55.72;98240.13;5053485;28;20345;-51
2023/03/10 01:24:13;;;;;;;5.00;3.22;;;;;;;-2.18;55.09;98236.56;5054339;28;20041;-51
2023/03/10 01:26:39;;;;;;;4.05;2.92;;;;;;;-2.21;55.26;98234.13;5054416;28;20461;-52
2023/03/10 01:29:04;;;;;;;5.10;3.05;;;;;;;-2.40;55.30;98191.50;5054194;28;20108;-48
2023/03/10 01:31:30;;;;;;;4.50;2.78;;;;;;;-2.24;55.84;98222.97;5053867;28;20021;-50
2023/03/10 01:33:56;;;;;;;4.15;3.22;;;;;;;-2.20;55.26;98222.69;5053673;28;20044;-50
2023/03/10 01:36:24;;;;;;;5.35;3.50;;;;;;;-2.22;55.25;98224.56;5054178;28;20032;-49
2023/03/10 01:38:51;;;;;;;4.28;2.50;;;;;;;-2.26;55.73;98228.28;5053571;28;20039;-49
2023/03/10 01:41:18;;;;;;;3.13;2.83;;;;;;;-2.28;55.04;98229.31;5053300;28;20049;-49
2023/03/10 01:43:47;;;;;;;3.97;2.95;;;;;;;-2.28;55.11;98234.56;5051247;28;20045;-50
2023/03/10 01:46:38;;;;;;;3.80;2.63;;;;;;;-2.34;55.61;98220.00;5034032;28;20072;-52
2023/03/10 01:49:11;;;;;;;5.20;3.00;;;;;;;-2.30;55.31;98232.00;5032898;28;20051;-48
2023/03/10 01:51:40;;;;;;;5.40;3.15;;;;;;;-2.51;55.74;98206.00;5034087;28;20333;-47
2023/03/10 01:54:11;;;;;;;4.45;2.90;;;;;;;-2.40;55.32;98239.50;5033705;28;20033;-48
2023/03/10 01:56:38;;;;;;;5.82;3.00;;;;;;;-2.40;54.92;98246.53;5033825;28;20029;-49
2023/03/10 01:59:04;;;;;;;4.45;2.95;;;;;;;-2.45;55.56;98252.84;5045135;28;20021;-50
2023/03/10 02:01:30;;;;;;;5.32;3.10;;;;;;;-2.70;55.27;98219.25;5053386;28;20043;-50
2023/03/10 02:04:02;;;;;;;3.97;2.42;;;;;;;-2.45;55.54;98252.84;5053198;28;20077;-51
2023/03/10 02:06:28;;;;;;;4.70;3.13;;;;;;;-2.44;55.56;98253.72;5053312;28;20152;-51
2023/03/10 02:08:58;;;;;;;5.38;3.35;;;;;;;-2.41;55.56;98263.16;5053326;28;20025;-51
2023/03/10 02:11:24;;;;;;;5.45;2.83;;;;;;;-2.40;54.93;98259.66;5053206;28;20363;-50
2023/03/10 02:13:49;;;;;;;4.78;3.13;;;;;;;-2.88;54.79;98177.34;5040752;28;20033;-50
2023/03/10 02:16:16;;;;;;;7.65;3.13;;;;;;;-2.40;54.63;98270.13;5033323;28;20064;-49
2023/03/10 02:18:44;;;;;;;4.22;2.92;;;;;;;-2.43;54.65;98272.88;5033219;28;20427;-50
2023/03/10 02:21:15;;;;;;;5.70;3.10;;;;;;;-2.45;55.42;98278.22;5032782;28;20025;-64
2023/03/10 02:24:07;;;;;;;4.88;3.10;;;;;;;-2.48;54.95;98279.22;5041026;28;20037;-49
2023/03/10 02:26:41;;;;;;;5.80;3.33;;;;;;;-2.45;54.89;98281.69;5052152;28;20063;-52
2023/03/10 02:29:12;;;;;;;3.40;2.70;;;;;;;-2.43;54.48;98280.75;5052753;28;20033;-48
2023/03/10 02:31:38;;;;;;;3.42;2.55;;;;;;;-2.57;54.94;98276.22;5053137;28;20125;-49
2023/03/10 02:34:05;;;;;;;4.78;2.80;;;;;;;-2.66;55.02;98272.31;5052891;28;20120;-49
2023/03/10 02:36:31;;;;;;;2.53;2.03;;;;;;;-2.70;54.16;98291.72;5052764;28;20033;-51
2023/03/10 02:38:56;;;;;;;3.97;2.40;;;;;;;-2.72;54.42;98301.44;5049814;28;20052;-49
2023/03/10 02:41:29;;;;;;;5.68;2.45;;;;;;;-2.61;54.14;98304.38;5052738;28;20076;-50
2023/03/10 02:43:58;;;;;;;3.85;2.60;;;;;;;-2.72;53.84;98299.69;5052779;28;20380;-52
2023/03/10 02:46:24;;;;;;;3.70;2.50;;;;;;;-2.82;53.36;98303.69;5052355;28;20067;-47
2023/03/10 02:48:50;;;;;;;3.45;2.45;;;;;;;-3.00;53.43;98280.13;5052560;28;20494;-52
2023/03/10 02:51:23;;;;;;;3.20;2.42;;;;;;;-2.79;53.05;98321.84;5052913;28;20129;-49
2023/03/10 02:53:48;;;;;;;3.70;2.40;;;;;;;-2.76;53.11;98309.47;5052367;28;20044;-49
2023/03/10 02:56:14;;;;;;;4.32;2.70;;;;;;;-2.82;52.47;98316.78;5052253;28;20029;-49
2023/03/10 02:58:39;;;;;;;4.07;2.88;;;;;;;-2.88;52.91;98299.63;5042253;28;20041;-51
2023/03/10 03:01:05;;;;;;;4.00;2.60;;;;;;;-3.05;52.89;98287.34;5031835;28;20040;-51
2023/03/10 03:03:31;;;;;;;3.38;2.35;;;;;;;-3.26;52.60;98274.38;5048789;28;20033;-50
2023/03/10 03:05:57;;;;;;;3.33;2.75;;;;;;;-3.11;52.71;98314.69;5052530;28;20056;-53
2023/03/10 03:08:22;;;;;;;3.55;2.50;;;;;;;-3.13;53.64;98316.53;5051685;28;20440;-49
2023/03/10 03:10:48;;;;;;;3.60;2.70;;;;;;;-3.15;53.60;98320.97;5052499;28;20360;-50
2023/03/10 03:13:14;;;;;;;3.72;2.88;;;;;;;-3.22;53.48;98311.75;5052392;28;20033;-51
2023/03/10 03:15:40;;;;;;;3.55;2.50;;;;;;;-3.21;53.65;98326.53;5052468;28;20102;-52
2023/03/10 03:18:05;;;;;;;4.10;2.70;;;;;;;-3.23;53.84;98323.13;5052031;28;20033;-55
2023/03/10 03:20:31;;;;;;;3.55;2.38;;;;;;;-3.25;53.84;98325.84;5052841;28;20111;-51
2023/03/10 03:22:57;;;;;;;4.45;2.60;;;;;;;-3.23;53.40;98329.22;5051833;28;20025;-52
2023/03/10 03:25:25;;;;;;;4.85;2.70;;;;;;;-3.25;54.09;98332.84;5052165;28;20562;-54
2023/03/10 03:27:50;;;;;;;4.22;2.88;;;;;;;-3.28;54.23;98322.50;5052177;28;20036;-51
2023/03/10 03:30:22;;;;;;;3.17;2.17;;;;;;;-3.23;54.25;98325.75;5037916;28;20407;-51
2023/03/10 03:32:48;;;;;;;3.55;2.75;;;;;;;-3.24;54.04;98331.91;5035133;28;20038;-51
2023/03/10 03:35:18;;;;;;;3.97;2.53;;;;;;;-3.41;54.00;98306.56;5036169;28;20408;-65
2023/03/10 03:37:43;;;;;;;3.47;2.40;;;;;;;-3.21;54.09;98339.59;5036460;28;20044;-52
2023/03/10 03:40:11;;;;;;;4.45;2.78;;;;;;;-3.20;53.98;98338.69;5036301;28;20029;-51
2023/03/10 03:42:42;;;;;;;3.97;2.88;;;;;;;-3.29;53.71;98341.75;5035769;28;20042;-50
2023/03/10 03:45:09;;;;;;;3.33;2.45;;;;;;;-3.33;53.41;98339.28;5051575;28;20044;-47
2023/03/10 03:47:34;;;;;;;4.70;3.00;;;;;;;-3.32;54.04;98340.13;5055672;28;20033;-49
2023/03/10 03:50:00;;;;;;;3.60;2.75;;;;;;;-3.33;53.47;98346.28;5041194;28;20025;-48
2023/03/10 03:52:26;;;;;;;5.70;3.20;;;;;;;-3.35;53.68;98354.22;5036000;28;20034;-50
2023/03/10 03:54:51;;;;;;;5.50;2.78;;;;;;;-3.36;53.54;98349.03;5035794;28;20494;-49
2023/03/10 03:57:17;;;;;;;5.85;3.28;;;;;;;-3.37;53.68;98345.59;5035621;28;20044;-50
2023/03/10 03:59:42;;;;;;;4.13;2.60;;;;;;;-3.36;53.20;98351.66;5036060;28;20033;-51
2023/03/10 04:02:08;;;;;;;4.28;2.65;;;;;;;-3.39;54.26;98344.78;5035134;28;20032;-48
2023/03/10 04:04:33;;;;;;;4.10;2.85;;;;;;;-3.35;53.56;98351.59;5034580;28;20333;-49
2023/03/10 04:07:00;;;;;;;3.10;2.40;;;;;;;-3.35;53.45;98354.22;5035326;28;20164;-50
2023/03/10 04:09:25;;;;;;;4.13;2.60;;;;;;;-3.37;53.21;98355.19;5034086;28;20052;-57
2023/03/10 04:11:51;;;;;;;5.05;2.85;;;;;;;-3.58;53.79;98326.50;5036375;28;20448;-49
2023/03/10 04:14:16;;;;;;;5.07;3.10;;;;;;;-3.39;53.05;98367.50;5035392;28;20051;-66
2023/03/10 04:16:42;;;;;;;7.18;2.80;;;;;;;-3.40;53.52;98361.41;5035057;28;20029;-47
2023/03/10 04:19:07;;;;;;;4.82;3.20;;;;;;;-3.45;53.23;98366.03;5035501;28;20407;-48
2023/03/10 04:21:36;;;;;;;5.65;3.00;;;;;;;-3.51;53.76;98359.31;5035035;28;20037;-50
2023/03/10 04:24:02;;;;;;;4.35;3.10;;;;;;;-3.54;52.71;98369.09;5034926;28;20033;-48
2023/03/10 04:26:28;;;;;;;5.18;3.35;;;;;;;-3.51;53.04;98380.22;5034694;28;20029;-50
2023/03/10 04:28:53;;;;;;;5.45;3.42;;;;;;;-3.53;53.18;98391.72;5035273;28;20037;-48
2023/03/10 04:31:19;;;;;;;5.65;3.00;;;;;;;-3.54;53.34;98388.22;5045440;28;20025;-50
2023/03/10 04:33:45;;;;;;;4.00;2.70;;;;;;;-3.54;53.37;98395.25;5055047;28;20037;-51
2023/03/10 04:36:10;;;;;;;4.35;2.75;;;;;;;-3.50;53.53;98396.78;5055052;28;20053;-61
2023/03/10 04:38:36;;;;;;;5.53;3.35;;;;;;;-3.42;53.44;98399.06;5054957;28;20068;-54
2023/03/10 04:41:03;;;;;;;5.32;3.30;;;;;;;-3.43;52.82;98405.22;5054177;28;20092;-49
2023/03/10 04:43:30;;;;;;;5.13;3.25;;;;;;;-3.42;52.74;98407.75;5053650;28;20041;-50
2023/03/10 04:45:57;;;;;;;5.32;3.38;;;;;;;-3.51;52.80;98408.19;5044818;28;20460;-54
2023/03/10 04:48:23;;;;;;;4.93;3.42;;;;;;;-3.50;53.26;98402.88;5034965;28;20116;-52
2023/03/10 04:51:00;;;;;;;6.35;3.70;;;;;;;-3.36;53.42;98423.19;5037397;28;20037;-68
2023/03/10 04:53:26;;;;;;;6.57;3.65;;;;;;;-3.39;53.50;98415.44;5053764;28;20651;-61
2023/03/10 04:55:51;;;;;;;4.68;3.58;;;;;;;-3.32;52.82;98416.88;5054919;28;20041;-54
2023/03/10 04:58:21;;;;;;;4.80;3.50;;;;;;;-3.33;52.74;98425.66;5053853;28;20025;-56
2023/03/10 05:00:47;;;;;;;7.15;3.60;;;;;;;-3.64;52.22;98379.94;5051092;28;20033;-55
2023/03/10 05:03:12;;;;;;;4.03;3.35;;;;;;;-3.53;52.66;98413.47;5043458;28;20120;-55
2023/03/10 05:05:38;;;;;;;4.72;3.25;;;;;;;-3.59;53.00;98424.22;5046080;28;20634;-51
2023/03/10 05:08:04;;;;;;;5.55;3.83;;;;;;;-3.64;53.11;98436.66;5054563;28;20029;-52
2023/03/10 05:10:30;;;;;;;4.88;3.70;;;;;;;-3.66;53.75;98434.09;5054310;28;20136;-53
2023/03/10 05:12:56;;;;;;;5.32;3.85;;;;;;;-3.66;53.66;98449.81;5053422;28;20502;-54
2023/03/10 05:15:22;;;;;;;6.28;4.10;;;;;;;-3.75;53.63;98456.28;5054502;28;20095;-50
2023/03/10 05:17:47;;;;;;;5.63;3.75;;;;;;;-3.77;53.92;98454.69;5054620;28;20028;-49
2023/03/10 05:20:14;;;;;;;7.03;3.97;;;;;;;-4.02;53.46;98421.75;5051265;28;20029;-58
2023/03/10 05:22:40;;;;;;;5.45;3.75;;;;;;;-3.74;53.88;98475.47;5033957;28;20113;-52
2023/03/10 05:25:08;;;;;;;7.40;3.95;;;;;;;-3.68;53.40;98472.56;5034320;28;20033;-50
2023/03/10 05:27:35;;;;;;;6.53;4.25;;;;;;;-3.67;54.36;98474.28;5034561;28;20037;-49
2023/03/10 05:30:03;;;;;;;8.35;4.55;;;;;;;-3.83;54.04;98440.09;5033100;28;20033;-51
2023/03/10 05:32:29;;;;;;;5.13;3.70;;;;;;;-3.52;54.15;98477.13;5033967;28;20022;-48
2023/03/10 05:34:55;;;;;;;8.88;4.05;;;;;;;-3.44;53.99;98468.94;5033951;28;20383;-51
2023/03/10 05:37:21;;;;;;;7.20;4.20;;;;;;;-3.19;52.81;98484.38;5034509;28;20102;-49
2023/03/10 05:39:46;;;;;;;6.07;4.22;;;;;;;-3.29;52.16;98443.84;5034026;28;20102;-47
2023/03/10 05:42:12;;;;;;;5.55;3.72;;;;;;;-2.98;51.85;98486.91;5042062;28;20065;-46
2023/03/10 05:44:38;;;;;;;4.93;3.75;;;;;;;-2.95;51.66;98489.38;5053725;28;20037;-48
2023/03/10 05:47:04;;;;;;;8.27;4.68;;;;;;;-2.87;51.39;98482.03;5053775;28;20103;-50
2023/03/10 05:49:30;;;;;;;5.93;4.18;;;;;;;-2.63;50.81;98500.97;5053508;28;20394;-51
2023/03/10 05:51:56;;;;;;;6.35;4.35;;;;;;;-2.70;50.39;98448.91;5053652;28;20029;-52
2023/03/10 05:54:22;;;;;;;7.03;3.95;;;;;;;-2.52;49.84;98468.16;5053328;28;20033;-58
2023/03/10 05:56:49;;;;;;;8.02;4.75;;;;;;;-2.18;50.08;98519.75;5053220;28;20053;-49
2023/03/10 05:59:14;;;;;;;9.77;4.07;;;;;;;-2.11;49.93;98506.38;5053350;28;20129;-47
2023/03/10 06:01:40;;;;;;;8.30;5.07;;;;;;;-1.92;49.17;98515.00;5053468;28;20040;-48
2023/03/10 06:04:06;;;;;;;8.57;4.45;;;;;;;-1.68;48.73;98516.44;5053113;28;20039;-49
2023/03/10 06:06:32;;;;;;;7.25;4.70;;;;;;;-1.48;48.35;98528.53;5051914;28;20119;-52
2023/03/10 06:08:58;;;;;;;8.95;5.15;;;;;;;-1.15;47.58;98530.31;5033422;28;20120;-51
2023/03/10 06:11:23;;;;;;;9.43;5.85;;;;;;;-0.79;46.93;98531.06;5033261;28;20113;-56
2023/03/10 06:13:49;;;;;;;11.60;6.93;;;;;;;-0.46;46.19;98548.50;5032197;28;20435;-48
2023/03/10 06:16:14;;;;;;;9.80;5.85;;;;;;;-0.15;44.99;98547.63;5032642;28;20033;-50
2023/03/10 06:18:40;;;;;;;9.43;5.78;;;;;;;0.07;44.52;98517.44;5032988;28;20380;-51
2023/03/10 06:21:08;;;;;;;8.60;5.25;;;;;;;0.53;43.70;98547.25;5032872;28;20116;-52
2023/03/10 06:23:34;;;;;;;8.35;5.10;;;;;;;0.76;43.48;98532.69;5033023;28;20049;-54
2023/03/10 06:26:05;;;;;;;7.60;4.03;;;;;;;0.92;42.41;98537.00;5032960;28;20025;-50
2023/03/10 06:28:31;;;;;;;7.00;4.45;;;;;;;1.11;42.51;98547.25;5032896;28;20025;-49
2023/03/10 06:31:00;;;;;;;7.47;4.43;;;;;;;1.37;41.88;98552.69;5033073;28;20060;-52
2023/03/10 06:33:26;;;;;;;7.55;4.68;;;;;;;1.59;41.84;98560.09;5050264;28;20498;-51
2023/03/10 06:35:52;;;;;;;7.65;4.97;;;;;;;1.66;40.74;98557.88;5053009;28;20045;-53
2023/03/10 06:38:17;;;;;;;8.43;4.95;;;;;;;1.54;41.46;98564.78;5051979;28;20044;-52
2023/03/10 06:40:43;;;;;;;8.93;5.53;;;;;;;1.58;41.19;98564.50;5052832;28;20044;-55
2023/03/10 06:43:09;;;;;;;7.43;4.80;;;;;;;1.54;40.89;98560.38;5053059;28;20359;-57
2023/03/10 06:45:35;;;;;;;7.85;5.20;;;;;;;1.20;40.27;98570.41;5052734;28;20095;-52
2023/03/10 06:48:01;;;;;;;8.95;6.30;;;;;;;0.89;41.50;98568.84;5052332;28;20455;-53
2023/03/10 06:50:26;;;;;;;11.02;5.70;;;;;;;1.13;41.46;98582.28;5052826;28;20112;-56
2023/03/10 06:52:52;;;;;;;10.48;5.68;;;;;;;1.90;40.93;98575.72;5052531;28;20074;-52
2023/03/10 06:55:17;;;;;;;7.40;4.97;;;;;;;4.00;38.52;98586.91;5052353;28;20037;-53
2023/03/10 06:57:43;;;;;;;6.80;4.93;;;;;;;8.26;31.65;98562.09;5040776;28;20388;-51
2023/03/10 07:00:10;;;;;;;7.15;4.95;;;;;;;11.21;26.99;98571.13;5032767;28;20069;-51
2023/03/10 07:02:37;;;;;;;4.72;3.92;;;;;;;12.83;24.73;98573.72;5032742;28;20045;-56
2023/03/10 07:05:05;;;;;;;7.97;5.30;;;;;;;14.20;23.28;98580.81;5032345;28;20432;-51
2023/03/10 07:07:31;;;;;;;6.63;4.20;;;;;;;16.69;20.37;98582.63;5030256;28;20536;-52
2023/03/10 07:09:56;;;;;;;4.65;4.22;;;;;;;16.05;20.43;98582.41;5032416;28;20029;-59
2023/03/10 07:12:23;;;;;;;6.32;5.07;;;;;;;14.09;21.92;98589.28;5032972;28;20083;-52
2023/03/10 07:14:49;;;;;;;6.63;5.00;;;;;;;14.84;21.36;98589.63;5031191;28;20105;-50
2023/03/10 07:17:14;;;;;;;5.63;5.03;;;;;;;16.77;18.64;98575.22;5032048;28;20057;-56
2023/03/10 07:19:40;;;;;;;5.72;5.13;;;;;;;18.91;16.72;98589.06;5034660;28;20494;-54
2023/03/10 07:22:05;;;;;;;5.35;4.80;;;;;;;19.99;15.37;98594.31;5032619;28;20091;-50
2023/03/10 07:24:31;;;;;;;5.90;5.30;;;;;;;20.61;14.63;98599.19;5032267;28;20363;-50
2023/03/10 07:27:00;;;;;;;5.72;4.80;;;;;;;21.92;14.25;98595.69;5032424;28;20037;-56
2023/03/10 07:29:25;;;;;;;7.13;5.15;;;;;;;22.01;13.56;98574.44;5033109;28;20060;-53
2023/03/10 07:31:51;;;;;;;7.97;5.38;;;;;;;19.65;15.23;98597.97;5032386;28;20103;-51
2023/03/10 07:34:16;;;;;;;6.10;5.50;;;;;;;16.88;17.25;98605.44;5031912;28;20209;-52
2023/03/10 07:36:41;;;;;;;7.00;6.25;;;;;;;13.87;19.17;98615.16;5033132;28;20132;-51
2023/03/10 07:39:07;;;;;;;7.68;6.00;;;;;;;11.69;21.59;98609.03;5031959;28;20029;-52
2023/03/10 07:41:33;;;;;;;7.45;6.32;;;;;;;10.76;22.84;98616.69;5038310;28;20060;-53
2023/03/10 07:43:59;;;;;;;7.22;5.53;;;;;;;11.58;22.22;98614.72;5036225;28;20040;-53
2023/03/10 07:46:25;;;;;;;6.15;4.97;;;;;;;11.67;21.31;98602.19;5032008;28;20025;-57
2023/03/10 07:48:51;;;;;;;5.53;4.90;;;;;;;9.89;22.70;98622.53;5032064;28;20084;-52
2023/03/10 07:51:18;;;;;;;6.63;5.38;;;;;;;7.82;25.12;98635.25;5030877;28;20048;-52
2023/03/10 07:53:44;;;;;;;5.38;4.88;;;;;;;6.18;27.24;98634.78;5031666;28;20033;-50
2023/03/10 07:56:12;;;;;;;7.88;5.50;;;;;;;4.72;29.28;98651.38;5036046;28;20052;-53
2023/03/10 07:58:38;;;;;;;6.22;4.82;;;;;;;3.59;30.34;98646.31;5050750;28;20036;-50
2023/03/10 08:01:04;;;;;;;8.55;6.20;;;;;;;2.60;32.31;98642.50;5050411;28;20410;-50
2023/03/10 08:03:30;;;;;;;7.18;5.80;;;;;;;1.88;33.75;98651.53;5032056;28;20041;-61
2023/03/10 08:05:58;;;;;;;7.15;5.32;;;;;;;1.32;34.61;98639.16;5031919;28;20040;-52
2023/03/10 08:08:24;;;;;;;6.10;4.57;;;;;;;1.36;35.00;98645.94;5031571;28;20057;-49
2023/03/10 08:10:49;;;;;;;7.72;5.30;;;;;;;1.91;34.91;98638.13;5032410;28;20113;-49
2023/03/10 08:13:15;;;;;;;7.03;5.05;;;;;;;2.78;33.16;98645.69;5044507;28;20116;-54
2023/03/10 08:15:40;;;;;;;7.68;4.72;;;;;;;3.33;32.25;98617.25;5050801;28;20025;-53
2023/03/10 08:18:06;;;;;;;5.70;4.38;;;;;;;3.94;31.79;98652.69;5034216;28;20511;-49
2023/03/10 08:20:34;;;;;;;8.48;4.30;;;;;;;4.01;30.64;98648.66;5051726;28;20108;-55
2023/03/10 08:23:00;;;;;;;9.55;5.05;;;;;;;3.61;31.34;98662.06;5051026;28;20094;-63
2023/03/10 08:25:26;;;;;;;7.35;5.00;;;;;;;3.02;32.00;98653.78;5055056;28;20029;-52
2023/03/10 08:27:51;;;;;;;6.25;4.38;;;;;;;2.11;33.46;98655.34;5042836;28;20368;-52
2023/03/10 08:30:17;;;;;;;7.53;5.40;;;;;;;1.49;34.08;98665.34;5044976;28;20116;-54
2023/03/10 08:32:42;;;;;;;9.27;5.80;;;;;;;0.96;35.41;98672.94;5046912;28;20031;-54
2023/03/10 08:35:08;;;;;;;7.70;5.32;;;;;;;0.56;36.79;98686.66;5038861;28;20102;-54
2023/03/10 08:37:34;;;;;;;8.68;5.80;;;;;;;0.43;36.85;98691.78;5034605;28;20036;-57
2023/03/10 08:39:59;;;;;;;5.90;4.07;;;;;;;0.01;36.18;98614.31;5033878;28;20026;-54
2023/03/10 08:42:25;;;;;;;6.18;4.35;;;;;;;0.36;36.60;98693.03;5034167;28;20045;-50
2023/03/10 08:44:53;;;;;;;6.75;4.75;;;;;;;0.28;36.90;98690.88;5034267;28;20094;-54
2023/03/10 08:47:19;;;;;;;6.93;4.50;;;;;;;0.21;37.12;98697.41;5034882;28;20113;-53
2023/03/10 08:49:45;;;;;;;7.30;4.63;;;;;;;0.23;38.22;98703.44;5034323;28;20147;-52
2023/03/10 08:52:10;;;;;;;5.78;3.95;;;;;;;0.40;37.55;98703.31;5034257;28;20072;-54
2023/03/10 08:54:36;;;;;;;7.03;4.88;;;;;;;0.52;37.62;98703.59;5018999;28;20037;-53
2023/03/10 08:57:01;;;;;;;9.70;4.68;;;;;;;0.64;37.05;98712.56;5041354;28;20040;-62
2023/03/10 08:59:27;;;;;;;6.15;4.10;;;;;;;0.58;37.43;98692.69;5034691;28;20045;-57
2023/03/10 09:01:52;;;;;;;5.85;4.35;;;;;;;0.57;37.27;98715.53;5034788;28;20405;-53
2023/03/10 09:04:18;;;;;;;6.43;4.60;;;;;;;0.31;37.85;98711.75;5034169;28;20029;-51
2023/03/10 09:06:43;;;;;;;8.02;4.50;;;;;;;0.01;38.35;98704.66;5034036;28;20083;-51
2023/03/10 09:09:09;;;;;;;7.15;4.65;;;;;;;-0.07;39.16;98722.63;5034421;28;20364;-50
2023/03/10 09:11:37;;;;;;;6.50;3.90;;;;;;;-0.08;39.01;98710.41;5047389;28;20044;-52
2023/03/10 09:14:04;;;;;;;5.82;3.80;;;;;;;-0.01;38.56;98722.28;5046429;28;20032;-54
2023/03/10 09:16:30;;;;;;;6.15;4.40;;;;;;;0.16;38.45;98720.50;5052850;28;20021;-51
2023/03/10 09:18:56;;;;;;;4.75;3.65;;;;;;;0.37;38.71;98716.66;5052018;28;20033;-52
2023/03/10 09:21:22;;;;;;;6.40;3.35;;;;;;;0.59;37.95;98718.09;5051838;28;20040;-55
2023/03/10 09:23:49;;;;;;;4.93;3.75;;;;;;;0.85;37.41;98721.88;5040500;28;20033;-53
2023/03/10 09:26:15;;;;;;;6.55;4.32;;;;;;;1.03;37.16;98718.22;5042388;28;20375;-53
2023/03/10 09:28:41;;;;;;;7.22;4.82;;;;;;;1.07;37.00;98722.38;5040875;28;20033;-57
2023/03/10 09:31:08;;;;;;;7.97;4.95;;;;;;;0.81;37.41;98735.28;5040126;28;20513;-54
2023/03/10 09:33:34;;;;;;;6.53;4.70;;;;;;;0.59;37.83;98726.00;5040080;28;20041;-56
2023/03/10 09:36:01;;;;;;;6.20;4.05;;;;;;;0.58;37.97;98724.28;5041838;28;20101;-60
2023/03/10 09:38:28;;;;;;;3.97;3.10;;;;;;;0.42;37.65;98700.63;5041341;28;20483;-54
2023/03/10 09:41:06;;;;;;;6.40;3.85;;;;;;;0.67;38.07;98725.56;5040926;28;20194;-51
2023/03/10 09:43:37;;;;;;;8.60;4.30;;;;;;;0.42;38.92;98727.78;5041741;28;20065;-52
2023/03/10 09:46:24;;;;;;;6.85;4.45;;;;;;;0.42;39.36;98737.50;5040393;28;20414;-69
2023/03/10 09:49:08;;;;;;;6.40;4.57;;;;;;;0.47;38.87;98745.97;5041200;28;20045;-60
2023/03/10 09:51:38;;;;;;;6.72;4.32;;;;;;;0.39;38.76;98756.94;5041823;28;20030;-56
2023/03/10 09:55:00;;;;;;;5.80;4.18;;;;;;;0.51;38.86;98751.94;5043038;28;20111;-53
2023/03/10 09:57:27;;;;;;;6.78;4.07;;;;;;;0.45;39.02;98749.63;5038402;28;20021;-51
2023/03/10 09:59:58;;;;;;;6.80;4.75;;;;;;;0.62;39.30;98757.41;5039372;28;20048;-52
2023/03/10 10:02:36;;;;;;;7.78;4.40;;;;;;;0.69;38.92;98758.75;5042155;28;20044;-52
2023/03/10 10:05:09;;;;;;;7.85;5.03;;;;;;;0.71;38.37;98762.16;5040783;28;20033;-50
2023/03/10 10:07:44;;;;;;;9.35;4.80;;;;;;;0.63;38.90;98756.47;5040911;28;20476;-53
2023/03/10 10:10:35;;;;;;;6.20;4.25;;;;;;;0.66;39.22;98756.31;5039893;28;20064;-55
2023/03/10 10:13:11;;;;;;;6.22;4.28;;;;;;;0.34;38.82;98716.84;5024995;28;20059;-50
2023/03/10 10:15:40;;;;;;;8.50;5.43;;;;;;;0.53;39.17;98755.31;5038480;28;20053;-54
2023/03/10 10:18:11;;;;;;;6.32;4.47;;;;;;;0.53;39.52;98750.88;5040813;28;20108;-52
2023/03/10 10:20:47;;;;;;;6.93;4.25;;;;;;;0.54;39.23;98764.91;5040586;28;20066;-55
2023/03/10 10:23:18;;;;;;;9.18;5.20;;;;;;;0.34;39.07;98743.19;5033397;28;20041;-54
2023/03/10 10:25:44;;;;;;;6.22;4.13;;;;;;;0.46;39.02;98761.84;5025732;28;20025;-55
2023/03/10 10:28:19;;;;;;;6.40;4.13;;;;;;;0.53;39.74;98763.22;5034755;28;20109;-51
2023/03/10 10:30:45;;;;;;;5.93;4.00;;;;;;;0.58;40.07;98769.06;5042691;28;20071;-52
2023/03/10 10:33:12;;;;;;;5.93;4.05;;;;;;;0.61;39.47;98771.53;5041692;28;20061;-50
2023/03/10 10:36:00;;;;;;;7.30;4.13;;;;;;;0.73;39.22;98769.16;5042851;28;20051;-52
2023/03/10 10:38:31;;;;;;;4.30;3.17;;;;;;;0.70;38.73;98770.16;5042028;28;20441;-55
2023/03/10 10:41:03;;;;;;;6.00;4.10;;;;;;;0.60;39.13;98777.72;5041750;28;20053;-55
2023/03/10 10:43:30;;;;;;;6.82;3.70;;;;;;;0.58;39.62;98766.44;5040537;28;20171;-55
2023/03/10 10:46:04;;;;;;;7.35;4.10;;;;;;;0.56;39.23;98758.59;5034013;28;20036;-52
2023/03/10 10:48:38;;;;;;;4.28;3.50;;;;;;;0.48;38.93;98774.00;5042331;28;20024;-51
2023/03/10 10:51:23;;;;;;;6.63;3.83;;;;;;;0.20;39.21;98775.53;5043170;28;20345;-57
2023/03/10 10:53:49;;;;;;;5.95;4.32;;;;;;;-0.03;40.08;98788.16;5042549;28;20093;-52
2023/03/10 10:56:17;;;;;;;5.97;4.10;;;;;;;-0.08;40.51;98798.09;5040591;28;20037;-55
2023/03/10 10:59:03;;;;;;;5.28;3.70;;;;;;;0.01;40.57;98804.66;5045550;28;20041;-53
2023/03/10 11:01:56;;;;;;;4.68;3.70;;;;;;;0.12;40.21;98802.28;5035698;28;20035;-50
2023/03/10 11:04:24;;;;;;;4.88;3.67;;;;;;;0.21;40.19;98811.47;5042226;28;20376;-53
2023/03/10 11:06:50;;;;;;;5.50;4.15;;;;;;;0.19;40.41;98789.63;5032159;28;20025;-53
2023/03/10 11:09:21;;;;;;;6.05;4.20;;;;;;;0.28;40.23;98804.09;5033278;28;20444;-54
2023/03/10 11:11:58;;;;;;;7.97;4.85;;;;;;;0.26;40.55;98811.22;5032229;28;20045;-54
2023/03/10 11:14:48;;;;;;;6.55;4.40;;;;;;;0.42;40.66;98822.59;5044772;28;20095;-58
2023/03/10 11:17:19;;;;;;;7.47;4.50;;;;;;;0.36;39.82;98820.31;5051887;28;20087;-52
2023/03/10 11:20:26;;;;;;;6.68;4.40;;;;;;;0.45;40.11;98825.97;5052245;28;20119;-54
2023/03/10 11:23:11;;;;;;;5.38;3.78;;;;;;;0.20;40.08;98825.56;5051887;28;20033;-53
2023/03/10 11:25:48;;;;;;;6.22;3.78;;;;;;;0.03;40.50;98831.72;5052035;28;20033;-58
2023/03/10 11:28:28;;;;;;;6.38;3.70;;;;;;;-0.13;40.31;98838.72;5049255;28;20503;-52
2023/03/10 11:31:14;;;;;;;6.18;3.50;;;;;;;-0.15;40.60;98844.91;5031714;28;20478;-54
2023/03/10 11:33:52;;;;;;;5.22;3.72;;;;;;;-0.12;41.40;98853.59;5031691;28;20048;-51
2023/03/10 11:36:20;;;;;;;4.82;3.75;;;;;;;-0.18;41.17;98849.47;5032059;28;20037;-54
2023/03/10 11:38:49;;;;;;;7.30;4.40;;;;;;;-0.12;41.14;98857.06;5042517;28;20029;-55
2023/03/10 11:41:25;;;;;;;6.70;4.22;;;;;;;-0.30;40.53;98811.50;5044125;28;20467;-51